createdAt,value
2019-02-22T00:02:25.738Z,7.49
2019-02-22T00:04:56.008Z,7.51
2019-02-22T00:07:26.198Z,7.51
2019-02-22T00:09:56.753Z,7.49
2019-02-22T00:12:27.250Z,7.50
2019-02-22T00:14:57.552Z,7.50
2019-02-22T00:17:27.807Z,7.46
2019-02-22T00:19:58.194Z,7.46
2019-02-22T00:22:28.818Z,7.46
2019-02-22T00:24:59.118Z,7.48
2019-02-22T00:27:29.353Z,7.48
2019-02-22T00:29:59.684Z,7.48
2019-02-22T00:32:31.009Z,7.46
2019-02-22T00:35:01.347Z,7.47
2019-02-22T00:37:32.221Z,7.39
2019-02-22T00:40:02.403Z,7.39
2019-02-22T00:42:32.560Z,7.44
2019-02-22T00:45:02.946Z,7.49
2019-02-22T00:47:33.246Z,7.50
2019-02-22T00:50:03.774Z,7.51
2019-02-22T00:52:34.194Z,7.54
2019-02-22T00:55:04.552Z,7.55
2019-02-22T00:57:34.788Z,7.51
2019-02-22T01:00:05.013Z,7.51
2019-02-22T01:02:36.000Z,7.52
2019-02-22T01:05:06.332Z,7.49
2019-02-22T01:07:36.462Z,7.50
2019-02-22T01:10:06.916Z,7.47
2019-02-22T01:12:37.129Z,7.45
2019-02-22T01:15:07.410Z,7.43
2019-02-22T01:17:38.162Z,7.43
2019-02-22T01:20:08.363Z,7.43
2019-02-22T01:22:38.594Z,7.43
2019-02-22T01:25:08.994Z,7.42
2019-02-22T01:27:39.317Z,7.38
2019-02-22T01:30:10.263Z,7.37
2019-02-22T01:32:40.552Z,7.39
2019-02-22T01:35:10.734Z,7.40
2019-02-22T01:37:40.904Z,7.43
2019-02-22T01:40:11.009Z,7.43
2019-02-22T01:42:41.282Z,7.41
2019-02-22T01:45:11.524Z,7.36
2019-02-22T01:47:41.654Z,7.35
2019-02-22T01:50:18.823Z,7.35
2019-02-22T01:52:48.973Z,7.35
2019-02-22T01:55:20.007Z,7.36
2019-02-22T01:57:50.267Z,7.33
2019-02-22T02:00:20.521Z,7.32
2019-02-22T02:02:50.963Z,7.32
2019-02-22T02:05:21.647Z,7.33
2019-02-22T02:07:51.967Z,7.33
2019-02-22T02:10:22.223Z,7.35
2019-02-22T02:12:52.660Z,7.33
2019-02-22T02:15:22.790Z,7.34
2019-02-22T02:17:52.918Z,7.37
2019-02-22T02:20:23.119Z,7.40
2019-02-22T02:22:53.332Z,7.43
2019-02-22T02:25:23.529Z,7.44
2019-02-22T02:27:53.706Z,7.40
2019-02-22T02:30:24.071Z,7.37
2019-02-22T02:32:54.700Z,7.37
2019-02-22T02:35:25.015Z,7.35
2019-02-22T02:37:55.296Z,7.35
2019-02-22T02:40:25.611Z,7.34
2019-02-22T02:42:55.718Z,7.34
2019-02-22T02:45:26.044Z,7.33
2019-02-22T02:47:56.279Z,7.37
2019-02-22T02:50:26.480Z,7.38
2019-02-22T02:52:56.674Z,7.36
2019-02-22T02:55:32.299Z,7.35
2019-02-22T02:58:02.689Z,7.36
2019-02-22T03:00:32.957Z,7.35
2019-02-22T03:03:03.118Z,7.40
2019-02-22T03:05:47.845Z,7.38
2019-02-22T03:08:18.137Z,7.38
2019-02-22T03:10:48.384Z,7.40
2019-02-22T03:13:18.767Z,7.44
2019-02-22T03:15:49.039Z,7.43
2019-02-22T03:18:19.738Z,7.38
2019-02-22T03:20:50.104Z,7.41
2019-02-22T03:23:20.362Z,7.45
2019-02-22T03:25:50.860Z,7.44
2019-02-22T03:28:21.394Z,7.45
2019-02-22T03:30:51.869Z,7.46
2019-02-22T03:33:22.028Z,7.50
2019-02-22T03:35:52.361Z,7.43
2019-02-22T03:38:22.690Z,7.41
2019-02-22T03:40:52.848Z,7.40
2019-02-22T03:43:23.034Z,7.41
2019-02-22T03:45:53.220Z,7.43
2019-02-22T03:48:23.374Z,7.43
2019-02-22T03:50:53.527Z,7.42
2019-02-22T03:53:42.844Z,7.41
2019-02-22T03:56:13.285Z,7.46
2019-02-22T03:58:43.675Z,7.45
2019-02-22T04:01:13.893Z,7.45
2019-02-22T04:03:44.140Z,7.30
2019-02-22T04:06:14.313Z,7.33
2019-02-22T04:08:44.429Z,7.34
2019-02-22T04:11:14.650Z,7.31
2019-02-22T04:13:44.902Z,7.33
2019-02-22T04:16:15.055Z,7.38
2019-02-22T04:18:45.175Z,7.40
2019-02-22T04:21:15.518Z,7.42
2019-02-22T04:23:45.693Z,7.46
2019-02-22T04:26:15.938Z,7.51
2019-02-22T04:28:46.168Z,7.51
2019-02-22T04:31:16.424Z,7.50
2019-02-22T04:33:46.619Z,7.51
2019-02-22T04:36:16.807Z,7.53
2019-02-22T04:38:46.925Z,7.53
2019-02-22T04:41:17.052Z,7.54
2019-02-22T04:43:47.215Z,7.51
2019-02-22T04:46:18.318Z,7.50
2019-02-22T04:48:48.565Z,7.53
2019-02-22T04:51:18.746Z,7.49
2019-02-22T04:53:48.990Z,7.49
2019-02-22T04:56:19.149Z,7.50
2019-02-22T04:58:49.341Z,7.54
2019-02-22T05:01:19.614Z,7.56
2019-02-22T05:03:49.826Z,7.60
2019-02-22T05:06:20.141Z,7.61
2019-02-22T05:08:51.247Z,7.62
2019-02-22T05:11:21.600Z,7.62
2019-02-22T05:13:52.014Z,7.61
2019-02-22T05:16:22.489Z,7.63
2019-02-22T05:18:52.867Z,7.63
2019-02-22T05:21:23.177Z,7.65
2019-02-22T05:23:53.537Z,7.61
2019-02-22T05:26:23.770Z,7.55
2019-02-22T05:28:53.956Z,7.47
2019-02-22T05:31:24.500Z,7.50
2019-02-22T05:33:54.825Z,7.52
2019-02-22T05:36:25.163Z,7.54
2019-02-22T05:38:55.491Z,7.56
2019-02-22T05:41:25.650Z,7.56
2019-02-22T05:43:55.823Z,7.58
2019-02-22T05:46:26.152Z,7.58
2019-02-22T05:48:56.570Z,7.62
2019-02-22T05:51:27.048Z,7.63
2019-02-22T05:53:57.377Z,7.62
2019-02-22T05:56:27.690Z,7.64
2019-02-22T05:58:57.901Z,7.65
2019-02-22T06:01:28.335Z,7.66
2019-02-22T06:03:58.740Z,7.66
2019-02-22T06:06:29.148Z,7.69
2019-02-22T06:08:59.725Z,7.72
2019-02-22T06:11:29.921Z,7.74
2019-02-22T06:14:00.869Z,7.75
2019-02-22T06:16:31.166Z,7.76
2019-02-22T06:19:01.595Z,7.77
2019-02-22T06:21:31.798Z,7.74
2019-02-22T06:24:02.872Z,7.74
2019-02-22T06:26:33.373Z,7.70
2019-02-22T06:29:03.909Z,7.72
2019-02-22T06:31:34.414Z,7.77
2019-02-22T06:34:04.561Z,7.80
2019-02-22T06:36:35.120Z,7.81
2019-02-22T06:39:06.854Z,7.80
2019-02-22T06:41:37.027Z,7.72
2019-02-22T06:44:07.351Z,7.68
2019-02-22T06:46:37.802Z,7.73
2019-02-22T06:49:08.020Z,7.76
2019-02-22T06:51:38.227Z,7.77
2019-02-22T06:54:08.402Z,7.77
2019-02-22T06:56:38.589Z,7.80
2019-02-22T06:59:08.837Z,7.82
2019-02-22T07:01:39.561Z,7.85
2019-02-22T07:04:09.846Z,7.88
2019-02-22T07:06:40.291Z,7.87
2019-02-22T07:09:11.239Z,7.87
2019-02-22T07:12:00.680Z,7.87
2019-02-22T07:14:31.054Z,7.89
2019-02-22T07:17:02.577Z,7.86
2019-02-22T07:19:32.741Z,7.89
2019-02-22T07:22:03.298Z,7.94
2019-02-22T07:24:33.742Z,7.98
2019-02-22T07:27:03.994Z,7.93
2019-02-22T07:29:34.330Z,7.96
2019-02-22T07:32:06.224Z,7.98
2019-02-22T07:34:36.904Z,8.02
2019-02-22T07:37:07.159Z,8.07
2019-02-22T07:39:37.414Z,8.10
2019-02-22T07:42:07.681Z,8.08
2019-02-22T07:44:38.411Z,8.06
2019-02-22T07:47:08.726Z,8.05
2019-02-22T07:49:38.977Z,8.09
2019-02-22T07:52:09.347Z,8.13
2019-02-22T07:54:39.624Z,8.15
2019-02-22T07:57:10.315Z,8.14
2019-02-22T07:59:40.735Z,8.19
2019-02-22T08:02:11.123Z,8.20
2019-02-22T08:04:41.669Z,8.21
2019-02-22T08:07:12.453Z,8.27
2019-02-22T08:09:43.142Z,8.29
2019-02-22T08:12:13.776Z,8.22
2019-02-22T08:14:44.051Z,8.16
2019-02-22T08:17:14.872Z,8.18
2019-02-22T08:19:45.335Z,8.27
2019-02-22T08:22:16.191Z,8.35
2019-02-22T08:24:46.658Z,8.42
2019-02-22T08:27:17.615Z,8.49
2019-02-22T08:29:48.667Z,8.56
2019-02-22T08:32:19.371Z,8.65
2019-02-22T08:34:50.020Z,8.74
2019-02-22T08:37:20.354Z,8.79
2019-02-22T08:39:58.684Z,8.76
2019-02-22T08:42:23.179Z,8.74
2019-02-22T08:44:53.716Z,8.84
2019-02-22T08:47:24.464Z,8.96
2019-02-22T08:49:55.139Z,9.09
2019-02-22T08:52:25.792Z,9.19
2019-02-22T08:54:56.457Z,9.31
2019-02-22T08:57:27.001Z,9.49
2019-02-22T08:59:57.326Z,9.64
2019-02-22T09:02:28.350Z,9.78
2019-02-22T09:04:58.726Z,9.86
2019-02-22T09:07:29.589Z,9.87
2019-02-22T09:09:59.971Z,9.79
2019-02-22T09:12:30.297Z,9.83
2019-02-22T09:15:01.152Z,9.87
2019-02-22T09:17:31.635Z,9.93
2019-02-22T09:20:02.191Z,9.89
2019-02-22T09:22:34.541Z,10.01
2019-02-22T09:25:05.173Z,10.08
2019-02-22T09:27:35.957Z,10.12
2019-02-22T09:30:08.217Z,10.25
2019-02-22T09:32:38.689Z,10.35
2019-02-22T09:35:10.155Z,10.32
2019-02-22T09:37:40.699Z,10.42
2019-02-22T09:40:14.541Z,10.51
2019-02-22T09:42:44.139Z,10.53
2019-02-22T09:45:17.429Z,10.57
2019-02-22T09:47:48.301Z,10.60
2019-02-22T09:50:18.721Z,10.68
2019-02-22T09:52:48.975Z,10.83
2019-02-22T09:55:19.165Z,11.01
2019-02-22T09:57:49.410Z,11.11
2019-02-22T10:00:19.680Z,11.12
2019-02-22T10:02:50.230Z,11.33
2019-02-22T10:05:20.738Z,11.39
2019-02-22T10:07:51.070Z,11.48
2019-02-22T10:10:21.337Z,11.48
2019-02-22T10:12:51.640Z,11.58
2019-02-22T10:15:22.270Z,11.60
2019-02-22T10:17:52.759Z,11.68
2019-02-22T10:20:23.084Z,11.66
2019-02-22T10:22:53.323Z,11.64
2019-02-22T10:25:23.523Z,11.63
2019-02-22T10:27:53.825Z,11.53
2019-02-22T10:30:24.497Z,11.48
2019-02-22T10:32:54.701Z,11.55
2019-02-22T10:35:24.979Z,11.61
2019-02-22T10:37:55.326Z,11.74
2019-02-22T10:40:25.717Z,11.91
2019-02-22T10:42:55.977Z,12.15
2019-02-22T10:45:26.522Z,12.37
2019-02-22T10:47:57.173Z,12.62
2019-02-22T10:50:27.558Z,12.91
2019-02-22T10:53:02.232Z,13.16
2019-02-22T10:55:30.305Z,13.50
2019-02-22T10:58:00.629Z,13.57
2019-02-22T11:00:31.057Z,13.31
2019-02-22T11:03:01.311Z,13.07
2019-02-22T11:05:31.483Z,13.16
2019-02-22T11:08:01.842Z,13.38
2019-02-22T11:10:32.299Z,13.75
2019-02-22T11:13:02.745Z,13.69
2019-02-22T11:15:33.232Z,13.60
2019-02-22T11:18:03.429Z,13.18
2019-02-22T11:20:33.627Z,13.03
2019-02-22T11:23:03.911Z,12.92
2019-02-22T11:25:34.132Z,12.79
2019-02-22T11:28:04.399Z,12.89
2019-02-22T11:30:35.176Z,13.16
2019-02-22T11:33:05.413Z,13.15
2019-02-22T11:35:35.822Z,13.25
2019-02-22T11:38:06.176Z,13.38
2019-02-22T11:40:38.063Z,13.66
2019-02-22T11:43:09.069Z,14.07
2019-02-22T11:45:39.579Z,14.61
2019-02-22T11:48:10.266Z,15.01
2019-02-22T11:50:40.764Z,15.18
2019-02-22T11:53:10.926Z,15.44
2019-02-22T11:55:41.221Z,16.13
2019-02-22T11:58:11.447Z,17.48
2019-02-22T12:00:41.830Z,18.35
2019-02-22T12:03:24.387Z,19.13
2019-02-22T12:05:44.737Z,20.32
2019-02-22T12:08:15.341Z,19.65
2019-02-22T12:10:45.756Z,19.26
2019-02-22T12:13:17.285Z,18.88
2019-02-22T12:15:47.862Z,18.60
2019-02-22T12:18:19.697Z,18.77
2019-02-22T12:20:51.240Z,17.52
2019-02-22T12:23:21.874Z,17.04
2019-02-22T12:25:52.360Z,17.01
2019-02-22T12:28:22.725Z,17.01
2019-02-22T12:30:52.907Z,17.44
2019-02-22T12:33:23.135Z,17.23
2019-02-22T12:35:53.405Z,16.67
2019-02-22T12:38:24.204Z,17.04
2019-02-22T12:40:54.521Z,17.82
2019-02-22T12:43:24.852Z,19.03
2019-02-22T12:45:56.419Z,19.02
2019-02-22T12:48:27.149Z,18.27
2019-02-22T12:50:57.366Z,18.00
2019-02-22T12:53:28.122Z,17.77
2019-02-22T12:55:58.389Z,17.35
2019-02-22T12:58:28.852Z,17.21
2019-02-22T13:00:59.539Z,16.46
2019-02-22T13:03:30.283Z,16.28
2019-02-22T13:06:01.481Z,16.28
2019-02-22T13:08:32.000Z,16.28
2019-02-22T13:11:02.623Z,16.31
2019-02-22T13:13:33.300Z,16.27
2019-02-22T13:16:03.933Z,16.07
2019-02-22T13:18:36.745Z,16.00
2019-02-22T13:21:07.316Z,15.84
2019-02-22T13:23:37.786Z,15.66
2019-02-22T13:26:08.354Z,15.43
2019-02-22T13:28:39.139Z,15.40
2019-02-22T13:31:10.768Z,15.38
2019-02-22T13:33:41.547Z,15.39
2019-02-22T13:36:12.364Z,15.37
2019-02-22T13:38:42.884Z,15.08
2019-02-22T13:41:13.440Z,14.59
2019-02-22T13:43:43.935Z,14.75
2019-02-22T13:46:14.517Z,14.54
2019-02-22T13:48:45.598Z,13.78
2019-02-22T13:51:16.161Z,13.60
2019-02-22T13:53:46.831Z,13.54
2019-02-22T13:56:28.886Z,13.27
2019-02-22T13:58:49.376Z,13.25
2019-02-22T14:01:20.116Z,13.25
2019-02-22T14:03:50.636Z,13.40
2019-02-22T14:06:21.406Z,13.59
2019-02-22T14:08:51.914Z,13.60
2019-02-22T14:11:22.445Z,13.70
2019-02-22T14:13:53.229Z,13.73
2019-02-22T14:16:23.592Z,13.81
2019-02-22T14:18:54.087Z,13.75
2019-02-22T14:21:24.909Z,13.73
2019-02-22T14:23:55.623Z,13.73
2019-02-22T14:26:26.311Z,13.70
2019-02-22T14:28:57.127Z,14.05
2019-02-22T14:31:27.558Z,15.62
2019-02-22T14:33:57.909Z,17.54
2019-02-22T14:36:29.498Z,18.94
2019-02-22T14:39:00.422Z,19.89
2019-02-22T14:41:31.616Z,20.45
2019-02-22T14:44:02.347Z,20.01
2019-02-22T14:46:33.063Z,20.00
2019-02-22T14:49:03.701Z,19.93
2019-02-22T14:51:34.282Z,19.74
2019-02-22T14:54:05.093Z,19.60
2019-02-22T14:56:35.627Z,19.27
2019-02-22T14:59:06.361Z,18.01
2019-02-22T15:01:37.249Z,17.50
2019-02-22T15:04:07.897Z,16.96
2019-02-22T15:06:40.303Z,16.60
2019-02-22T15:09:10.976Z,16.14
2019-02-22T15:11:41.632Z,16.00
2019-02-22T15:14:12.245Z,15.83
2019-02-22T15:17:00.526Z,15.61
2019-02-22T15:19:30.887Z,15.43
2019-02-22T15:22:01.574Z,15.28
2019-02-22T15:24:33.060Z,14.97
2019-02-22T15:27:03.962Z,14.81
2019-02-22T15:29:34.554Z,14.83
2019-02-22T15:32:05.376Z,14.93
2019-02-22T15:34:35.872Z,14.67
2019-02-22T15:37:06.808Z,14.79
2019-02-22T15:39:37.628Z,14.36
2019-02-22T15:42:08.178Z,14.50
2019-02-22T15:44:38.743Z,14.39
2019-02-22T15:47:12.121Z,14.08
2019-02-22T15:49:41.865Z,14.41
2019-02-22T15:52:12.208Z,14.52
2019-02-22T15:54:42.720Z,14.32
2019-02-22T15:57:13.156Z,14.41
2019-02-22T15:59:43.628Z,14.52
2019-02-22T16:02:14.511Z,14.47
2019-02-22T16:05:04.170Z,14.35
2019-02-22T16:07:44.280Z,13.53
2019-02-22T16:10:07.076Z,13.08
2019-02-22T16:12:39.438Z,13.01
2019-02-22T16:15:10.518Z,13.01
2019-02-22T16:17:41.870Z,12.79
2019-02-22T16:20:12.355Z,12.65
2019-02-22T16:22:42.875Z,12.43
2019-02-22T16:25:19.639Z,12.14
2019-02-22T16:27:45.731Z,12.08
2019-02-22T16:30:17.826Z,11.85
2019-02-22T16:32:48.363Z,12.06
2019-02-22T16:35:19.138Z,12.06
2019-02-22T16:37:49.424Z,12.01
2019-02-22T16:40:19.997Z,12.01
2019-02-22T16:42:50.571Z,11.94
2019-02-22T16:45:21.201Z,11.87
2019-02-22T16:47:51.684Z,11.82
2019-02-22T16:50:22.042Z,11.75
2019-02-22T16:52:52.750Z,11.64
2019-02-22T16:55:23.088Z,11.54
2019-02-22T16:57:53.509Z,11.51
2019-02-22T17:00:24.305Z,11.16
2019-02-22T17:02:54.772Z,11.16
2019-02-22T17:05:25.318Z,11.12
2019-02-22T17:07:55.858Z,11.05
2019-02-22T17:10:26.201Z,10.99
2019-02-22T17:12:56.522Z,10.97
2019-02-22T17:15:26.777Z,10.92
2019-02-22T17:17:57.312Z,10.90
2019-02-22T17:20:27.877Z,10.82
2019-02-22T17:22:58.148Z,10.73
2019-02-22T17:25:28.776Z,10.57
2019-02-22T17:27:59.349Z,10.44
2019-02-22T17:30:30.096Z,10.21
2019-02-22T17:33:00.703Z,10.03
2019-02-22T17:35:32.188Z,9.83
2019-02-22T17:38:02.498Z,9.68
2019-02-22T17:40:36.911Z,9.57
2019-02-22T17:43:07.300Z,9.43
2019-02-22T17:45:39.348Z,9.31
2019-02-22T17:48:09.919Z,9.20
2019-02-22T17:50:40.644Z,9.09
2019-02-22T17:53:11.224Z,8.93
2019-02-22T17:55:41.680Z,8.72
2019-02-22T17:58:12.481Z,8.63
2019-02-22T18:00:43.051Z,8.53
2019-02-22T18:03:13.484Z,8.48
2019-02-22T18:05:43.871Z,8.44
2019-02-22T18:08:14.136Z,8.32
2019-02-22T18:10:44.549Z,8.21
2019-02-22T18:13:15.921Z,8.10
2019-02-22T18:15:46.659Z,8.04
2019-02-22T18:18:17.169Z,7.90
2019-02-22T18:20:47.521Z,7.74
2019-02-22T18:23:18.181Z,7.57
2019-02-22T18:25:48.558Z,7.41
2019-02-22T18:28:18.973Z,7.32
2019-02-22T18:30:50.978Z,7.17
2019-02-22T18:33:21.314Z,7.03
2019-02-22T18:35:52.007Z,6.91
2019-02-22T18:38:22.544Z,6.83
2019-02-22T18:40:52.847Z,6.74
2019-02-22T18:43:23.832Z,6.64
2019-02-22T18:45:54.272Z,6.61
2019-02-22T18:48:24.849Z,6.49
2019-02-22T18:50:55.231Z,6.28
2019-02-22T18:53:25.712Z,6.16
2019-02-22T18:55:56.267Z,6.02
2019-02-22T18:58:27.227Z,5.93
2019-02-22T19:00:57.875Z,5.86
2019-02-22T19:03:28.551Z,5.80
2019-02-22T19:05:58.844Z,5.73
2019-02-22T19:08:32.336Z,5.67
2019-02-22T19:11:01.748Z,5.62
2019-02-22T19:13:32.108Z,5.47
2019-02-22T19:16:02.427Z,5.22
2019-02-22T19:18:33.079Z,5.19
2019-02-22T19:21:03.923Z,5.11
2019-02-22T19:23:34.798Z,4.99
2019-02-22T19:26:07.168Z,5.01
2019-02-22T19:28:37.740Z,5.06
2019-02-22T19:31:09.937Z,5.01
2019-02-22T19:33:40.396Z,4.97
2019-02-22T19:36:11.000Z,4.87
2019-02-22T19:38:41.347Z,4.76
2019-02-22T19:41:12.168Z,4.65
2019-02-22T19:44:03.005Z,4.63
2019-02-22T19:46:33.890Z,4.61
2019-02-22T19:49:05.106Z,4.53
2019-02-22T19:51:35.548Z,4.49
2019-02-22T19:54:06.578Z,4.46
2019-02-22T19:56:37.612Z,4.32
2019-02-22T19:59:08.393Z,4.22
2019-02-22T20:01:39.228Z,4.14
2019-02-22T20:04:09.873Z,4.07
2019-02-22T20:06:41.078Z,4.02
2019-02-22T20:09:11.883Z,3.98
2019-02-22T20:11:42.787Z,3.78
2019-02-22T20:14:13.440Z,3.79
2019-02-22T20:16:44.250Z,3.72
2019-02-22T20:19:15.382Z,3.70
2019-02-22T20:21:46.343Z,3.69
2019-02-22T20:24:17.920Z,3.66
2019-02-22T20:26:48.932Z,3.56
2019-02-22T20:29:19.973Z,3.45
2019-02-22T20:31:50.703Z,3.37
2019-02-22T20:34:21.477Z,3.27
2019-02-22T20:36:52.202Z,3.18
2019-02-22T20:39:22.862Z,3.19
2019-02-22T20:41:53.934Z,3.15
2019-02-22T20:44:24.703Z,3.12
2019-02-22T20:46:55.496Z,3.07
2019-02-22T20:49:25.808Z,3.06
2019-02-22T20:51:56.537Z,3.00
2019-02-22T20:54:26.819Z,2.94
2019-02-22T20:56:57.692Z,2.92
2019-02-22T20:59:28.495Z,2.78
2019-02-22T21:01:59.496Z,2.78
2019-02-22T21:04:31.175Z,2.76
2019-02-22T21:07:01.934Z,2.73
2019-02-22T21:09:32.443Z,2.66
2019-02-22T21:12:03.289Z,2.61
2019-02-22T21:14:34.205Z,2.59
2019-02-22T21:17:05.024Z,2.45
2019-02-22T21:19:35.710Z,2.39
2019-02-22T21:22:06.598Z,2.33
2019-02-22T21:24:37.057Z,2.27
2019-02-22T21:27:07.788Z,2.24
2019-02-22T21:29:39.181Z,2.17
2019-02-22T21:32:09.785Z,2.14
2019-02-22T21:34:40.296Z,2.07
2019-02-22T21:37:10.974Z,2.02
2019-02-22T21:39:41.323Z,1.99
2019-02-22T21:42:19.832Z,2.01
2019-02-22T21:44:44.692Z,1.93
2019-02-22T21:47:15.428Z,1.87
2019-02-22T21:49:48.090Z,1.82
2019-02-22T21:52:18.962Z,1.77
2019-02-22T21:54:49.683Z,1.67
2019-02-22T21:57:20.292Z,1.67
2019-02-22T21:59:50.642Z,1.66
2019-02-22T22:02:21.309Z,1.64
2019-02-22T22:04:52.076Z,1.52
2019-02-22T22:07:22.862Z,1.51
2019-02-22T22:09:53.214Z,1.48
2019-02-22T22:12:24.178Z,1.49
2019-02-22T22:14:54.542Z,1.43
2019-02-22T22:17:25.064Z,1.37
2019-02-22T22:19:55.590Z,1.35
2019-02-22T22:22:26.196Z,1.34
2019-02-22T22:24:56.479Z,1.27
2019-02-22T22:27:27.140Z,1.11
2019-02-22T22:29:57.706Z,1.01
2019-02-22T22:32:28.784Z,0.97
2019-02-22T22:34:59.175Z,1.06
2019-02-22T22:37:29.537Z,1.08
2019-02-22T22:40:00.053Z,1.10
2019-02-22T22:42:30.731Z,1.12
2019-02-22T22:45:02.030Z,1.11
2019-02-22T22:47:33.025Z,1.13
2019-02-22T22:50:03.468Z,1.02
2019-02-22T22:52:34.532Z,1.05
2019-02-22T22:55:05.219Z,1.04
2019-02-22T22:57:36.066Z,1.07
2019-02-22T23:00:12.640Z,0.99
2019-02-22T23:02:43.945Z,0.90
2019-02-22T23:05:14.336Z,0.77
2019-02-22T23:07:44.873Z,0.75
2019-02-22T23:10:15.563Z,0.78
2019-02-22T23:12:46.325Z,0.81
2019-02-22T23:15:18.608Z,0.80
2019-02-22T23:17:48.911Z,0.72
2019-02-22T23:20:19.340Z,0.68
2019-02-22T23:22:49.526Z,0.59
2019-02-22T23:25:19.937Z,0.58
2019-02-22T23:27:50.708Z,0.54
2019-02-22T23:30:21.178Z,0.37
2019-02-22T23:32:51.785Z,0.30
2019-02-22T23:35:22.159Z,0.31
2019-02-22T23:37:52.627Z,0.33
2019-02-22T23:40:22.939Z,0.33
2019-02-22T23:42:53.199Z,0.29
2019-02-22T23:45:23.515Z,0.31
2019-02-22T23:47:54.222Z,0.29
2019-02-22T23:50:26.174Z,0.29
2019-02-22T23:52:56.748Z,0.27
2019-02-22T23:55:27.169Z,0.17
2019-02-22T23:57:58.068Z,0.21
